sensor_id;sensor_type;location;lat;lon;timestamp;pressure;altitude;pressure_sealevel;temperature;humidity
37858;BME280;23695;55.868;37.472;2022-10-16T00:01:31;100503.16;;;6.47;58.94
37858;BME280;23695;55.868;37.472;2022-10-16T00:04:00;100515.22;;;6.44;59.09
37858;BME280;23695;55.868;37.472;2022-10-16T00:06:30;100510.13;;;6.43;59.18
37858;BME280;23695;55.868;37.472;2022-10-16T00:08:58;100509.34;;;6.42;59.09
37858;BME280;23695;55.868;37.472;2022-10-16T00:11:33;100512.28;;;6.41;59.20
37858;BME280;23695;55.868;37.472;2022-10-16T00:14:06;100516.06;;;6.40;59.40
37858;BME280;23695;55.868;37.472;2022-10-16T00:16:34;100519.81;;;6.39;59.45
37858;BME280;23695;55.868;37.472;2022-10-16T00:19:02;100518.72;;;6.40;59.29
37858;BME280;23695;55.868;37.472;2022-10-16T00:21:30;100525.19;;;6.39;59.35
37858;BME280;23695;55.868;37.472;2022-10-16T00:24:16;100523.56;;;6.38;59.60
37858;BME280;23695;55.868;37.472;2022-10-16T00:26:43;100523.28;;;6.34;59.41
37858;BME280;23695;55.868;37.472;2022-10-16T00:29:11;100528.41;;;6.31;59.43
37858;BME280;23695;55.868;37.472;2022-10-16T00:31:38;100525.44;;;6.27;59.50
37858;BME280;23695;55.868;37.472;2022-10-16T00:34:05;100527.59;;;6.25;59.90
37858;BME280;23695;55.868;37.472;2022-10-16T00:36:32;100532.97;;;6.25;59.61
37858;BME280;23695;55.868;37.472;2022-10-16T00:38:59;100529.19;;;6.26;59.62
37858;BME280;23695;55.868;37.472;2022-10-16T00:41:29;100530.81;;;6.27;59.84
37858;BME280;23695;55.868;37.472;2022-10-16T00:43:58;100531.09;;;6.25;59.78
37858;BME280;23695;55.868;37.472;2022-10-16T00:49:09;100538.88;;;6.22;59.86
37858;BME280;23695;55.868;37.472;2022-10-16T00:51:40;100542.09;;;6.19;60.07
37858;BME280;23695;55.868;37.472;2022-10-16T00:54:11;100542.09;;;6.19;60.09
37858;BME280;23695;55.868;37.472;2022-10-16T00:56:39;100533.50;;;6.17;60.18
37858;BME280;23695;55.868;37.472;2022-10-16T00:59:12;100548.00;;;6.16;60.39
37858;BME280;23695;55.868;37.472;2022-10-16T01:01:40;100544.78;;;6.14;60.48
37858;BME280;23695;55.868;37.472;2022-10-16T01:04:07;100537.81;;;6.13;60.44
37858;BME280;23695;55.868;37.472;2022-10-16T01:09:33;100546.13;;;6.11;60.67
37858;BME280;23695;55.868;37.472;2022-10-16T01:12:14;100548.53;;;6.08;60.32
37858;BME280;23695;55.868;37.472;2022-10-16T01:14:52;100548.00;;;6.06;60.39
37858;BME280;23695;55.868;37.472;2022-10-16T01:17:32;100547.75;;;6.02;60.81
37858;BME280;23695;55.868;37.472;2022-10-16T01:29:11;100555.25;;;5.95;61.10
37858;BME280;23695;55.868;37.472;2022-10-16T01:31:41;100555.78;;;5.92;60.85
37858;BME280;23695;55.868;37.472;2022-10-16T01:34:14;100565.13;;;5.89;60.96
37858;BME280;23695;55.868;37.472;2022-10-16T01:36:49;100560.56;;;5.90;60.97
37858;BME280;23695;55.868;37.472;2022-10-16T01:39:21;100557.63;;;5.86;61.46
37858;BME280;23695;55.868;37.472;2022-10-16T01:41:54;100566.19;;;5.83;61.10
37858;BME280;23695;55.868;37.472;2022-10-16T01:44:35;100567.25;;;5.82;61.27
37858;BME280;23695;55.868;37.472;2022-10-16T01:47:04;100569.91;;;5.82;61.35
37858;BME280;23695;55.868;37.472;2022-10-16T01:49:34;100565.09;;;5.79;61.47
37858;BME280;23695;55.868;37.472;2022-10-16T01:52:04;100566.69;;;5.70;61.71
37858;BME280;23695;55.868;37.472;2022-10-16T01:54:34;100569.63;;;5.74;61.59
37858;BME280;23695;55.868;37.472;2022-10-16T01:57:04;100569.09;;;5.72;61.44
37858;BME280;23695;55.868;37.472;2022-10-16T01:59:40;100565.63;;;5.71;61.59
37858;BME280;23695;55.868;37.472;2022-10-16T02:02:09;100568.31;;;5.71;61.69
37858;BME280;23695;55.868;37.472;2022-10-16T02:04:43;100562.94;;;5.71;61.81
37858;BME280;23695;55.868;37.472;2022-10-16T02:07:12;100560.53;;;5.69;61.80
37858;BME280;23695;55.868;37.472;2022-10-16T02:09:39;100565.06;;;5.64;61.77
37858;BME280;23695;55.868;37.472;2022-10-16T02:12:24;100565.63;;;5.66;62.01
37858;BME280;23695;55.868;37.472;2022-10-16T02:14:53;100571.22;;;5.64;61.70
37858;BME280;23695;55.868;37.472;2022-10-16T02:17:21;100569.63;;;5.63;61.71
37858;BME280;23695;55.868;37.472;2022-10-16T02:19:50;100572.56;;;5.62;61.61
37858;BME280;23695;55.868;37.472;2022-10-16T02:22:34;100573.91;;;5.59;61.87
37858;BME280;23695;55.868;37.472;2022-10-16T02:25:19;100570.69;;;5.57;61.89
37858;BME280;23695;55.868;37.472;2022-10-16T02:28:09;100576.88;;;5.58;61.69
37858;BME280;23695;55.868;37.472;2022-10-16T02:30:41;100567.44;;;5.45;62.20
37858;BME280;23695;55.868;37.472;2022-10-16T02:33:11;100568.53;;;5.49;62.04
37858;BME280;23695;55.868;37.472;2022-10-16T02:35:45;100574.69;;;5.50;61.88
37858;BME280;23695;55.868;37.472;2022-10-16T02:38:15;100572.28;;;5.48;62.07
37858;BME280;23695;55.868;37.472;2022-10-16T02:40:43;100582.16;;;5.48;62.00
37858;BME280;23695;55.868;37.472;2022-10-16T02:43:10;100576.00;;;5.47;62.09
37858;BME280;23695;55.868;37.472;2022-10-16T02:45:38;100576.00;;;5.47;62.16
37858;BME280;23695;55.868;37.472;2022-10-16T02:48:05;100580.56;;;5.47;62.43
37858;BME280;23695;55.868;37.472;2022-10-16T02:50:32;100575.47;;;5.45;62.33
37858;BME280;23695;55.868;37.472;2022-10-16T02:52:59;100570.66;;;5.42;62.61
37858;BME280;23695;55.868;37.472;2022-10-16T02:55:27;100590.47;;;5.41;62.58
37858;BME280;23695;55.868;37.472;2022-10-16T02:57:54;100578.41;;;5.38;62.59
37858;BME280;23695;55.868;37.472;2022-10-16T03:00:22;100588.03;;;5.34;62.94
37858;BME280;23695;55.868;37.472;2022-10-16T03:02:49;100591.53;;;5.35;63.11
37858;BME280;23695;55.868;37.472;2022-10-16T03:05:16;100585.63;;;5.33;62.69
37858;BME280;23695;55.868;37.472;2022-10-16T03:07:43;100588.84;;;5.35;62.93
37858;BME280;23695;55.868;37.472;2022-10-16T03:10:10;100594.72;;;5.32;62.92
37858;BME280;23695;55.868;37.472;2022-10-16T03:12:37;100592.06;;;5.32;62.79
37858;BME280;23695;55.868;37.472;2022-10-16T03:15:05;100592.84;;;5.32;62.82
37858;BME280;23695;55.868;37.472;2022-10-16T03:17:33;100592.31;;;5.30;63.08
37858;BME280;23695;55.868;37.472;2022-10-16T03:20:00;100597.91;;;5.29;63.12
37858;BME280;23695;55.868;37.472;2022-10-16T03:22:29;100596.31;;;5.28;63.15
37858;BME280;23695;55.868;37.472;2022-10-16T03:24:56;100594.97;;;5.25;63.11
37858;BME280;23695;55.868;37.472;2022-10-16T03:27:23;100599.53;;;5.25;63.01
37858;BME280;23695;55.868;37.472;2022-10-16T03:29:50;100595.50;;;5.22;63.05
37858;BME280;23695;55.868;37.472;2022-10-16T03:32:17;100600.56;;;5.19;63.36
37858;BME280;23695;55.868;37.472;2022-10-16T03:34:46;100603.22;;;5.19;63.51
37858;BME280;23695;55.868;37.472;2022-10-16T03:37:13;100603.22;;;5.19;63.23
37858;BME280;23695;55.868;37.472;2022-10-16T03:39:40;100604.56;;;5.16;63.28
37858;BME280;23695;55.868;37.472;2022-10-16T03:42:07;100606.72;;;5.14;63.53
37858;BME280;23695;55.868;37.472;2022-10-16T03:44:34;100608.59;;;5.14;63.63
37858;BME280;23695;55.868;37.472;2022-10-16T03:47:01;100609.88;;;5.11;63.33
37858;BME280;23695;55.868;37.472;2022-10-16T03:49:28;100609.66;;;5.13;63.61
37858;BME280;23695;55.868;37.472;2022-10-16T03:51:55;100614.69;;;5.09;63.70
37858;BME280;23695;55.868;37.472;2022-10-16T03:54:22;100613.63;;;5.10;63.63
37858;BME280;23695;55.868;37.472;2022-10-16T03:56:49;100613.91;;;5.08;63.86
37858;BME280;23695;55.868;37.472;2022-10-16T03:59:17;100610.16;;;5.09;63.94
37858;BME280;23695;55.868;37.472;2022-10-16T04:01:44;100607.75;;;5.08;63.96
37858;BME280;23695;55.868;37.472;2022-10-16T04:04:11;100612.00;;;5.04;63.90
37858;BME280;23695;55.868;37.472;2022-10-16T04:06:38;100609.06;;;5.05;63.82
37858;BME280;23695;55.868;37.472;2022-10-16T04:09:05;100609.06;;;5.05;63.93
37858;BME280;23695;55.868;37.472;2022-10-16T04:11:32;100603.72;;;5.05;64.02
37858;BME280;23695;55.868;37.472;2022-10-16T04:14:00;100616.03;;;5.06;64.12
37858;BME280;23695;55.868;37.472;2022-10-16T04:16:27;100614.44;;;5.05;64.18
37858;BME280;23695;55.868;37.472;2022-10-16T04:18:54;100616.84;;;5.07;63.86
37858;BME280;23695;55.868;37.472;2022-10-16T04:21:21;100608.81;;;5.07;64.17
37858;BME280;23695;55.868;37.472;2022-10-16T04:23:49;100610.41;;;5.08;64.00
37858;BME280;23695;55.868;37.472;2022-10-16T04:26:16;100613.63;;;5.10;64.14
37858;BME280;23695;55.868;37.472;2022-10-16T04:28:43;100615.81;;;5.13;64.20
37858;BME280;23695;55.868;37.472;2022-10-16T04:31:10;100618.22;;;5.15;63.86
37858;BME280;23695;55.868;37.472;2022-10-16T04:33:37;100611.00;;;5.15;64.04
37858;BME280;23695;55.868;37.472;2022-10-16T04:36:04;100616.09;;;5.17;64.00
37858;BME280;23695;55.868;37.472;2022-10-16T04:38:31;100621.44;;;5.17;64.07
37858;BME280;23695;55.868;37.472;2022-10-16T04:40:58;100620.09;;;5.19;64.17
37858;BME280;23695;55.868;37.472;2022-10-16T04:43:26;100620.41;;;5.23;64.16
37858;BME280;23695;55.868;37.472;2022-10-16T04:45:58;100628.72;;;5.21;64.03
37858;BME280;23695;55.868;37.472;2022-10-16T04:48:25;100629.78;;;5.25;63.95
37858;BME280;23695;55.868;37.472;2022-10-16T04:50:52;100631.38;;;5.26;63.99
37858;BME280;23695;55.868;37.472;2022-10-16T04:53:21;100628.44;;;5.28;63.89
37858;BME280;23695;55.868;37.472;2022-10-16T04:55:49;100635.97;;;5.31;63.71
37858;BME280;23695;55.868;37.472;2022-10-16T04:58:16;100635.44;;;5.34;63.47
37858;BME280;23695;55.868;37.472;2022-10-16T05:00:44;100628.22;;;5.34;63.80
37858;BME280;23695;55.868;37.472;2022-10-16T05:03:13;100632.81;;;5.39;63.68
37858;BME280;23695;55.868;37.472;2022-10-16T05:05:44;100632.28;;;5.42;63.63
37858;BME280;23695;55.868;37.472;2022-10-16T05:08:13;100635.22;;;5.46;63.32
37858;BME280;23695;55.868;37.472;2022-10-16T05:10:44;100629.88;;;5.46;63.38
37858;BME280;23695;55.868;37.472;2022-10-16T05:13:11;100633.84;;;5.38;63.59
37858;BME280;23695;55.868;37.472;2022-10-16T05:15:38;100638.44;;;5.48;63.51
37858;BME280;23695;55.868;37.472;2022-10-16T05:18:05;100636.31;;;5.50;63.15
37858;BME280;23695;55.868;37.472;2022-10-16T05:20:32;100636.59;;;5.53;63.30
37858;BME280;23695;55.868;37.472;2022-10-16T05:23:00;100642.72;;;5.44;63.49
37858;BME280;23695;55.868;37.472;2022-10-16T05:25:27;100645.44;;;5.54;63.33
37858;BME280;23695;55.868;37.472;2022-10-16T05:27:54;100640.91;;;5.59;63.18
37858;BME280;23695;55.868;37.472;2022-10-16T05:30:21;100647.91;;;5.65;63.16
37858;BME280;23695;55.868;37.472;2022-10-16T05:32:49;100648.97;;;5.69;62.68
37858;BME280;23695;55.868;37.472;2022-10-16T05:35:18;100649.81;;;5.75;62.62
37858;BME280;23695;55.868;37.472;2022-10-16T05:37:45;100648.75;;;5.76;62.40
37858;BME280;23695;55.868;37.472;2022-10-16T05:40:13;100644.97;;;5.72;62.38
37858;BME280;23695;55.868;37.472;2022-10-16T05:42:40;100647.66;;;5.82;62.38
37858;BME280;23695;55.868;37.472;2022-10-16T05:45:09;100651.19;;;5.88;62.36
37858;BME280;23695;55.868;37.472;2022-10-16T05:47:37;100651.47;;;5.91;62.23
37858;BME280;23695;55.868;37.472;2022-10-16T05:50:04;100655.00;;;5.92;61.71
37858;BME280;23695;55.868;37.472;2022-10-16T05:52:31;100652.84;;;5.94;61.74
37858;BME280;23695;55.868;37.472;2022-10-16T05:54:58;100659.00;;;6.00;61.82
37858;BME280;23695;55.868;37.472;2022-10-16T05:57:25;100648.28;;;6.05;61.42
37858;BME280;23695;55.868;37.472;2022-10-16T05:59:53;100657.44;;;6.14;61.44
37858;BME280;23695;55.868;37.472;2022-10-16T06:02:20;100659.06;;;6.20;61.30
37858;BME280;23695;55.868;37.472;2022-10-16T06:04:47;100664.16;;;6.21;60.98
37858;BME280;23695;55.868;37.472;2022-10-16T06:07:14;100663.91;;;6.28;61.03
37858;BME280;23695;55.868;37.472;2022-10-16T06:09:42;100658.53;;;6.33;60.93
37858;BME280;23695;55.868;37.472;2022-10-16T06:12:09;100662.03;;;6.39;60.86
37858;BME280;23695;55.868;37.472;2022-10-16T06:14:36;100659.88;;;6.46;60.69
37858;BME280;23695;55.868;37.472;2022-10-16T06:17:03;100658.50;;;6.53;60.54
37858;BME280;23695;55.868;37.472;2022-10-16T06:19:31;100657.72;;;6.58;60.63
37858;BME280;23695;55.868;37.472;2022-10-16T06:21:58;100652.09;;;6.65;60.38
37858;BME280;23695;55.868;37.472;2022-10-16T06:24:25;100649.13;;;6.71;59.99
37858;BME280;23695;55.868;37.472;2022-10-16T06:26:52;100654.22;;;6.78;59.85
37858;BME280;23695;55.868;37.472;2022-10-16T06:29:19;100656.34;;;6.86;59.46
37858;BME280;23695;55.868;37.472;2022-10-16T06:31:46;100660.94;;;6.91;59.50
37858;BME280;23695;55.868;37.472;2022-10-16T06:34:13;100657.41;;;6.95;59.18
37858;BME280;23695;55.868;37.472;2022-10-16T06:36:40;100661.19;;;6.99;59.09
37858;BME280;23695;55.868;37.472;2022-10-16T06:39:08;100663.31;;;7.02;58.81
37858;BME280;23695;55.868;37.472;2022-10-16T06:41:35;100669.50;;;7.08;58.79
37858;BME280;23695;55.868;37.472;2022-10-16T06:44:14;100674.59;;;7.09;58.74
37858;BME280;23695;55.868;37.472;2022-10-16T06:46:41;100665.44;;;7.16;58.69
37858;BME280;23695;55.868;37.472;2022-10-16T06:49:08;100667.31;;;7.15;58.67
37858;BME280;23695;55.868;37.472;2022-10-16T06:51:35;100670.81;;;7.16;58.96
37858;BME280;23695;55.868;37.472;2022-10-16T06:54:08;100663.53;;;7.26;58.59
37858;BME280;23695;55.868;37.472;2022-10-16T06:56:35;100661.63;;;7.37;58.53
37858;BME280;23695;55.868;37.472;2022-10-16T06:59:03;100666.44;;;7.45;58.48
37858;BME280;23695;55.868;37.472;2022-10-16T07:01:30;100672.31;;;7.47;57.93
37858;BME280;23695;55.868;37.472;2022-10-16T07:03:58;100676.63;;;7.53;57.95
37858;BME280;23695;55.868;37.472;2022-10-16T07:06:26;100673.88;;;7.58;57.49
37858;BME280;23695;55.868;37.472;2022-10-16T07:08:55;100668.28;;;9.78;56.69
37858;BME280;23695;55.868;37.472;2022-10-16T07:11:23;100659.97;;;14.18;48.73
37858;BME280;23695;55.868;37.472;2022-10-16T07:13:51;100656.03;;;17.39;40.71
37858;BME280;23695;55.868;37.472;2022-10-16T07:16:26;100651.00;;;17.66;37.87
37858;BME280;23695;55.868;37.472;2022-10-16T07:18:55;100650.25;;;16.71;38.25
37858;BME280;23695;55.868;37.472;2022-10-16T07:21:28;100662.72;;;15.47;39.65
37858;BME280;23695;55.868;37.472;2022-10-16T07:23:57;100654.69;;;14.13;41.13
37858;BME280;23695;55.868;37.472;2022-10-16T07:26:26;100662.63;;;12.96;42.83
37858;BME280;23695;55.868;37.472;2022-10-16T07:28:53;100667.28;;;12.06;44.30
37858;BME280;23695;55.868;37.472;2022-10-16T07:31:21;100667.44;;;11.32;45.84
37858;BME280;23695;55.868;37.472;2022-10-16T07:33:48;100674.06;;;10.80;46.74
37858;BME280;23695;55.868;37.472;2022-10-16T07:36:17;100675.75;;;10.43;47.60
37858;BME280;23695;55.868;37.472;2022-10-16T07:38:44;100676.31;;;10.02;48.68
37858;BME280;23695;55.868;37.472;2022-10-16T07:41:14;100677.41;;;9.82;49.17
37858;BME280;23695;55.868;37.472;2022-10-16T07:43:49;100671.31;;;9.72;49.78
37858;BME280;23695;55.868;37.472;2022-10-16T07:46:17;100667.09;;;9.65;50.33
37858;BME280;23695;55.868;37.472;2022-10-16T07:48:45;100674.94;;;9.62;50.53
37858;BME280;23695;55.868;37.472;2022-10-16T07:51:16;100680.63;;;9.60;50.28
37858;BME280;23695;55.868;37.472;2022-10-16T07:53:43;100675.81;;;9.57;50.50
37858;BME280;23695;55.868;37.472;2022-10-16T07:56:10;100676.63;;;9.58;50.60
37858;BME280;23695;55.868;37.472;2022-10-16T07:58:38;100672.84;;;9.59;50.63
37858;BME280;23695;55.868;37.472;2022-10-16T08:01:08;100673.63;;;9.59;50.99
37858;BME280;23695;55.868;37.472;2022-10-16T08:03:36;100681.13;;;9.62;51.33
37858;BME280;23695;55.868;37.472;2022-10-16T08:06:04;100683.28;;;9.65;51.61
37858;BME280;23695;55.868;37.472;2022-10-16T08:08:31;100681.69;;;9.64;51.16
37858;BME280;23695;55.868;37.472;2022-10-16T08:10:58;100685.38;;;9.69;51.03
37858;BME280;23695;55.868;37.472;2022-10-16T08:13:25;100677.00;;;9.70;51.10
37858;BME280;23695;55.868;37.472;2022-10-16T08:15:54;100674.00;;;9.72;51.26
37858;BME280;23695;55.868;37.472;2022-10-16T08:18:22;100677.75;;;9.76;51.32
37858;BME280;23695;55.868;37.472;2022-10-16T08:20:55;100672.31;;;9.81;50.97
37858;BME280;23695;55.868;37.472;2022-10-16T08:23:24;100674.13;;;9.85;51.01
37858;BME280;23695;55.868;37.472;2022-10-16T08:25:53;100675.97;;;9.90;51.07
37858;BME280;23695;55.868;37.472;2022-10-16T08:28:21;100672.06;;;9.96;51.25
37858;BME280;23695;55.868;37.472;2022-10-16T08:30:48;100671.44;;;10.04;51.25
37858;BME280;23695;55.868;37.472;2022-10-16T08:33:15;100674.56;;;10.11;51.04
37858;BME280;23695;55.868;37.472;2022-10-16T08:35:42;100676.09;;;10.17;51.01
37858;BME280;23695;55.868;37.472;2022-10-16T08:38:09;100672.25;;;10.24;50.80
37858;BME280;23695;55.868;37.472;2022-10-16T08:40:37;100667.59;;;10.29;50.58
37858;BME280;23695;55.868;37.472;2022-10-16T08:45:47;100670.34;;;10.43;50.77
37858;BME280;23695;55.868;37.472;2022-10-16T08:51:09;100668.59;;;10.52;50.11
37858;BME280;23695;55.868;37.472;2022-10-16T08:53:48;100666.03;;;10.42;49.41
37858;BME280;23695;55.868;37.472;2022-10-16T08:56:17;100669.00;;;10.59;50.02
37858;BME280;23695;55.868;37.472;2022-10-16T08:58:45;100660.22;;;10.67;49.42
37858;BME280;23695;55.868;37.472;2022-10-16T09:01:21;100664.25;;;10.70;49.14
37858;BME280;23695;55.868;37.472;2022-10-16T09:06:59;100665.56;;;10.86;49.04
37858;BME280;23695;55.868;37.472;2022-10-16T09:23:08;100642.78;;;11.33;47.28
37858;BME280;23695;55.868;37.472;2022-10-16T09:25:39;100643.69;;;11.43;47.63
37858;BME280;23695;55.868;37.472;2022-10-16T09:28:08;100642.38;;;11.54;46.78
37858;BME280;23695;55.868;37.472;2022-10-16T09:30:37;100645.88;;;11.54;46.98
37858;BME280;23695;55.868;37.472;2022-10-16T09:33:06;100646.28;;;11.61;46.60
37858;BME280;23695;55.868;37.472;2022-10-16T09:35:47;100639.22;;;11.74;46.05
37858;BME280;23695;55.868;37.472;2022-10-16T09:40:51;100644.16;;;11.86;46.23
37858;BME280;23695;55.868;37.472;2022-10-16T09:43:34;100640.03;;;11.88;45.16
37858;BME280;23695;55.868;37.472;2022-10-16T09:46:07;100625.41;;;11.89;44.97
37858;BME280;23695;55.868;37.472;2022-10-16T09:51:23;100635.41;;;12.03;44.78
37858;BME280;23695;55.868;37.472;2022-10-16T09:53:57;100618.94;;;11.99;44.06
37858;BME280;23695;55.868;37.472;2022-10-16T09:56:30;100624.38;;;11.99;44.55
37858;BME280;23695;55.868;37.472;2022-10-16T09:59:03;100623.06;;;12.10;44.04
37858;BME280;23695;55.868;37.472;2022-10-16T10:01:55;100623.72;;;12.16;43.51
37858;BME280;23695;55.868;37.472;2022-10-16T10:04:23;100621.81;;;12.16;43.48
37858;BME280;23695;55.868;37.472;2022-10-16T10:06:53;100624.94;;;12.10;43.59
37858;BME280;23695;55.868;37.472;2022-10-16T10:09:31;100618.28;;;12.16;43.68
37858;BME280;23695;55.868;37.472;2022-10-16T10:12:03;100615.78;;;12.19;43.77
37858;BME280;23695;55.868;37.472;2022-10-16T10:14:36;100612.47;;;12.23;43.21
37858;BME280;23695;55.868;37.472;2022-10-16T10:19:48;100619.44;;;12.37;43.45
37858;BME280;23695;55.868;37.472;2022-10-16T10:22:31;100612.75;;;12.43;43.17
37858;BME280;23695;55.868;37.472;2022-10-16T10:30:27;100609.94;;;12.48;43.14
37858;BME280;23695;55.868;37.472;2022-10-16T10:33:25;100614.72;;;12.52;43.17
37858;BME280;23695;55.868;37.472;2022-10-16T10:47:15;100602.66;;;12.58;42.88
37858;BME280;23695;55.868;37.472;2022-10-16T10:58:25;100596.53;;;12.74;42.85
37858;BME280;23695;55.868;37.472;2022-10-16T11:06:40;100594.47;;;12.80;42.53
37858;BME280;23695;55.868;37.472;2022-10-16T11:09:33;100602.31;;;12.82;42.56
37858;BME280;23695;55.868;37.472;2022-10-16T11:12:18;100593.53;;;12.85;42.16
37858;BME280;23695;55.868;37.472;2022-10-16T11:17:18;100595.84;;;12.69;42.73
37858;BME280;23695;55.868;37.472;2022-10-16T11:22:55;100582.25;;;12.60;42.79
37858;BME280;23695;55.868;37.472;2022-10-16T11:25:27;100589.19;;;12.75;42.72
37858;BME280;23695;55.868;37.472;2022-10-16T11:30:30;100594.34;;;12.85;42.25
37858;BME280;23695;55.868;37.472;2022-10-16T11:33:25;100590.53;;;12.95;41.95
37858;BME280;23695;55.868;37.472;2022-10-16T11:46:36;100582.56;;;12.98;42.74
37858;BME280;23695;55.868;37.472;2022-10-16T11:49:26;100589.75;;;12.94;42.83
37858;BME280;23695;55.868;37.472;2022-10-16T11:52:16;100582.13;;;13.05;42.33
37858;BME280;23695;55.868;37.472;2022-10-16T11:54:54;100581.97;;;13.01;42.31
37858;BME280;23695;55.868;37.472;2022-10-16T11:57:33;100580.09;;;13.11;42.73
37858;BME280;23695;55.868;37.472;2022-10-16T12:08:30;100578.59;;;12.96;42.07
37858;BME280;23695;55.868;37.472;2022-10-16T12:11:20;100582.28;;;13.00;41.95
37858;BME280;23695;55.868;37.472;2022-10-16T12:13:49;100581.78;;;12.98;42.03
37858;BME280;23695;55.868;37.472;2022-10-16T12:16:20;100581.97;;;13.01;42.18
37858;BME280;23695;55.868;37.472;2022-10-16T12:18:48;100574.19;;;13.09;41.92
37858;BME280;23695;55.868;37.472;2022-10-16T12:21:17;100565.72;;;13.10;41.84
37858;BME280;23695;55.868;37.472;2022-10-16T12:23:53;100554.34;;;12.91;42.01
37858;BME280;23695;55.868;37.472;2022-10-16T12:26:32;100571.09;;;12.93;42.13
37858;BME280;23695;55.868;37.472;2022-10-16T12:29:36;100564.56;;;12.94;41.67
37858;BME280;23695;55.868;37.472;2022-10-16T12:32:06;100555.63;;;12.93;41.91
37858;BME280;23695;55.868;37.472;2022-10-16T12:35:43;100566.28;;;12.81;42.11
37858;BME280;23695;55.868;37.472;2022-10-16T12:38:17;100556.88;;;12.87;42.36
37858;BME280;23695;55.868;37.472;2022-10-16T12:40:47;100554.34;;;12.91;42.08
37858;BME280;23695;55.868;37.472;2022-10-16T12:46:02;100552.91;;;12.93;42.17
37858;BME280;23695;55.868;37.472;2022-10-16T12:48:29;100556.28;;;12.99;42.07
37858;BME280;23695;55.868;37.472;2022-10-16T12:51:25;100549.41;;;12.93;42.16
37858;BME280;23695;55.868;37.472;2022-10-16T12:54:19;100547.63;;;12.88;41.88
37858;BME280;23695;55.868;37.472;2022-10-16T13:03:19;100548.91;;;12.91;42.13
37858;BME280;23695;55.868;37.472;2022-10-16T13:14:36;100560.38;;;12.88;42.13
37858;BME280;23695;55.868;37.472;2022-10-16T13:22:45;100562.41;;;12.73;42.62
37858;BME280;23695;55.868;37.472;2022-10-16T13:28:05;100551.72;;;12.77;42.71
37858;BME280;23695;55.868;37.472;2022-10-16T13:30:59;100557.47;;;12.75;42.64
37858;BME280;23695;55.868;37.472;2022-10-16T13:33:37;100559.19;;;12.71;42.75
37858;BME280;23695;55.868;37.472;2022-10-16T13:36:20;100556.16;;;12.64;42.98
37858;BME280;23695;55.868;37.472;2022-10-16T13:38:47;100551.00;;;12.63;43.02
37858;BME280;23695;55.868;37.472;2022-10-16T13:41:18;100551.53;;;12.65;42.84
37858;BME280;23695;55.868;37.472;2022-10-16T13:43:52;100553.72;;;12.63;43.26
37858;BME280;23695;55.868;37.472;2022-10-16T13:46:24;100553.06;;;12.57;43.18
37858;BME280;23695;55.868;37.472;2022-10-16T13:49:04;100553.34;;;12.47;43.37
37858;BME280;23695;55.868;37.472;2022-10-16T13:51:33;100545.03;;;12.43;43.43
37858;BME280;23695;55.868;37.472;2022-10-16T13:54:00;100558.50;;;12.57;43.30
37858;BME280;23695;55.868;37.472;2022-10-16T13:56:30;100554.41;;;12.68;42.89
37858;BME280;23695;55.868;37.472;2022-10-16T13:59:05;100550.50;;;12.52;43.25
37858;BME280;23695;55.868;37.472;2022-10-16T14:01:35;100555.31;;;12.33;43.50
37858;BME280;23695;55.868;37.472;2022-10-16T14:04:10;100551.41;;;12.16;43.94
37858;BME280;23695;55.868;37.472;2022-10-16T14:06:43;100554.53;;;12.10;43.94
37858;BME280;23695;55.868;37.472;2022-10-16T14:09:25;100556.19;;;11.97;44.29
37858;BME280;23695;55.868;37.472;2022-10-16T14:12:07;100552.94;;;11.86;44.64
37858;BME280;23695;55.868;37.472;2022-10-16T14:14:51;100557.66;;;11.81;44.81
37858;BME280;23695;55.868;37.472;2022-10-16T14:17:24;100555.66;;;11.73;45.21
37858;BME280;23695;55.868;37.472;2022-10-16T14:19:59;100554.69;;;11.69;45.16
37858;BME280;23695;55.868;37.472;2022-10-16T14:22:38;100555.09;;;11.62;45.52
37858;BME280;23695;55.868;37.472;2022-10-16T14:25:24;100559.63;;;11.53;45.45
37858;BME280;23695;55.868;37.472;2022-10-16T14:28:05;100559.22;;;11.46;46.02
37858;BME280;23695;55.868;37.472;2022-10-16T14:30:54;100550.72;;;11.39;45.87
37858;BME280;23695;55.868;37.472;2022-10-16T14:36:16;100550.16;;;11.28;46.36
37858;BME280;23695;55.868;37.472;2022-10-16T14:39:20;100556.47;;;11.23;46.27
37858;BME280;23695;55.868;37.472;2022-10-16T14:41:52;100562.47;;;11.20;46.24
37858;BME280;23695;55.868;37.472;2022-10-16T14:44:22;100561.97;;;11.18;46.68
37858;BME280;23695;55.868;37.472;2022-10-16T14:46:51;100558.56;;;11.13;46.69
37858;BME280;23695;55.868;37.472;2022-10-16T14:49:19;100557.28;;;11.10;46.72
37858;BME280;23695;55.868;37.472;2022-10-16T14:51:47;100557.00;;;10.98;47.06
37858;BME280;23695;55.868;37.472;2022-10-16T14:54:17;100556.19;;;10.97;47.12
37858;BME280;23695;55.868;37.472;2022-10-16T14:56:47;100558.38;;;10.95;47.09
37858;BME280;23695;55.868;37.472;2022-10-16T14:59:40;100564.38;;;10.92;47.39
37858;BME280;23695;55.868;37.472;2022-10-16T15:04:47;100561.50;;;10.89;47.44
37858;BME280;23695;55.868;37.472;2022-10-16T15:07:14;100566.00;;;10.80;47.85
37858;BME280;23695;55.868;37.472;2022-10-16T15:09:42;100570.78;;;10.83;47.56
37858;BME280;23695;55.868;37.472;2022-10-16T15:12:16;100570.28;;;10.81;47.97
37858;BME280;23695;55.868;37.472;2022-10-16T15:14:43;100568.47;;;10.76;47.85
37858;BME280;23695;55.868;37.472;2022-10-16T15:17:10;100562.28;;;10.75;47.75
37858;BME280;23695;55.868;37.472;2022-10-16T15:19:38;100571.28;;;10.71;47.95
37858;BME280;23695;55.868;37.472;2022-10-16T15:22:05;100565.88;;;10.71;48.11